EGBB/BHX METAR and TAF weather

Enter ICAO airport designator
Station Type Date Time Source
EGBB METAR 2021/03/03 21:20 UTC NOAA

EGBB 032120Z 05006KT 2100 -RA OVC004 04/04 Q1025


Station Type Date Time Source
EGBB Decoded METAR 2021/03/03 21:20 UTC NOAA

Birmingham / Airport, United Kingdom (EGBB) 52-27N 001-44W 0M
Mar 03, 2021 - 04:20 PM EST / 2021.03.03 2120 UTC
Wind: from the NE (050 degrees) at 7 MPH (6 KT):0
Visibility: 1 mile(s):0
Sky conditions: overcast
Weather: light rain
Temperature: 39 F (4 C)
Dew Point: 39 F (4 C)
Relative Humidity: 100%
Pressure (altimeter): 30.27 in. Hg (1025 hPa)
ob: EGBB 032120Z 05006KT 2100 -RA OVC004 04/04 Q1025
cycle: 21

Station Type Date Time Source
EGBB TAF 2021/03/03 18:09 UTC NOAA

TAF EGBB 031704Z 0318/0418 12003KT 2000 BR BKN006
TEMPO 0318/0323 6000 SHRA BKN004
BECMG 0323/0402 BKN004 PROB30
TEMPO 0323/0404 SHRA PROB30 0404/0406 6000 NSW BKN008
BECMG 0406/0409 6000 NSW BKN008
BECMG 0410/0412 9999
TEMPO 0410/0412 BKN014
BECMG 0412/0415 BKN014
BECMG 0415/0418 SCT016 PROB30
TEMPO 0416/0418 7000 SHRA

Example: see airport list